Terminal Aerodrome Forecast
Issued by NWS Louisville, KY

Home | Current Version | Previous Version | Text Only | Print | Product List | Glossary On
Versions: 1 2 3 4 5 6 7 8 9 10 11 12 13
621
FTUS43 KLMK 262323
TAFBWG
TAF
KBWG 262323Z 2700/2724 VRB03KT P6SM SCT050
     FM271500 23008KT P6SM VCTS SCT045CB BKN130
     FM272100 25008KT 5SM -SHRA VCTS SCT040CB BKN090=

USA.gov is the U.S. government's official web portal to all federal, state and local government web resources and services.